Time;durP1;ratioP1;P1;durP2;ratioP2;P2;SDS_P1;SDS_P2;PMS_P1;PMS_P2;Temp;Humidity;BMP_temperature;BMP_pressure;BME280_temperature;BME280_humidity;BME280_pressure;Samples;Min_cycle;Max_cycle;Signal;HPM_P1;HPM_P2
2024/02/11 00:02:39;;;;;;;3.72;1.98;;;;;;;9.71;66.77;97029.50;10372038;28;20596;-62
2024/02/11 00:07:43;;;;;;;4.10;2.38;;;;;;;9.76;66.69;97048.09;10374891;28;20125;-61
2024/02/11 00:12:45;;;;;;;7.07;2.50;;;;;;;9.69;66.59;97066.16;10374223;28;20048;-62
2024/02/11 00:17:48;;;;;;;7.25;2.63;;;;;;;9.59;66.86;97062.81;10373109;28;20053;-62
2024/02/11 00:22:50;;;;;;;5.10;2.08;;;;;;;9.58;66.88;97066.41;10372269;28;20049;-62
2024/02/11 00:27:54;;;;;;;7.18;2.20;;;;;;;9.64;66.69;97060.56;10372250;28;20041;-62
2024/02/11 00:32:56;;;;;;;3.13;1.73;;;;;;;9.64;66.85;97063.19;10373019;28;20952;-62
2024/02/11 00:38:00;;;;;;;5.72;2.35;;;;;;;9.64;66.96;97056.19;10372115;28;20084;-61
2024/02/11 00:43:02;;;;;;;3.67;1.90;;;;;;;9.67;66.81;97049.06;10375964;28;20040;-62
2024/02/11 00:48:06;;;;;;;18.75;7.25;;;;;;;9.73;66.83;97053.66;10374258;28;20423;-61
2024/02/11 00:53:08;;;;;;;4.88;2.63;;;;;;;9.75;66.55;97056.91;10362403;28;20049;-61
2024/02/11 00:58:10;;;;;;;6.35;1.92;;;;;;;9.77;66.70;97068.03;10368038;28;20055;-62
2024/02/11 01:03:15;;;;;;;4.05;1.75;;;;;;;9.68;66.78;97069.75;10371967;28;20965;-61
2024/02/11 01:08:17;;;;;;;3.97;1.80;;;;;;;9.60;66.83;97078.34;10373269;28;20056;-62
2024/02/11 01:13:19;;;;;;;2.70;1.80;;;;;;;9.53;66.92;97074.69;10371596;28;20494;-62
2024/02/11 01:18:21;;;;;;;3.75;1.52;;;;;;;9.55;66.94;97084.97;10365071;28;20050;-60
2024/02/11 01:23:23;;;;;;;6.80;1.90;;;;;;;9.49;66.76;97089.03;10373900;28;20057;-60
2024/02/11 01:28:25;;;;;;;4.95;2.47;;;;;;;9.55;66.71;97085.78;10363152;28;20057;-60
2024/02/11 01:33:27;;;;;;;4.25;1.90;;;;;;;9.53;66.74;97089.53;10375966;28;20171;-60
2024/02/11 01:38:30;;;;;;;3.20;2.10;;;;;;;9.50;66.86;97085.44;10369004;28;20049;-61
2024/02/11 01:43:33;;;;;;;5.88;1.50;;;;;;;9.44;67.02;97078.22;10373620;28;20045;-60
2024/02/11 01:48:35;;;;;;;3.95;1.90;;;;;;;9.33;67.07;97078.50;10390211;28;20049;-60
2024/02/11 01:53:40;;;;;;;4.60;1.83;;;;;;;9.27;67.32;97080.88;10365365;28;20049;-60
2024/02/11 01:58:43;;;;;;;3.33;2.10;;;;;;;9.36;67.16;97077.38;10362605;28;20595;-60
2024/02/11 02:03:47;;;;;;;4.00;2.15;;;;;;;9.42;67.08;97081.97;10373272;28;20087;-60
2024/02/11 02:08:49;;;;;;;2.28;1.60;;;;;;;9.35;67.15;97083.53;10368664;28;20494;-61
2024/02/11 02:13:52;;;;;;;4.10;1.90;;;;;;;9.33;67.17;97083.69;10370520;28;20046;-60
2024/02/11 02:18:54;;;;;;;4.25;2.20;;;;;;;9.34;66.96;97085.31;10370855;28;20042;-62
2024/02/11 02:23:56;;;;;;;2.97;1.70;;;;;;;9.34;67.10;97094.97;10366044;28;20405;-61
2024/02/11 02:28:58;;;;;;;3.50;1.98;;;;;;;9.23;67.06;97097.81;10370496;28;20081;-61
2024/02/11 02:34:01;;;;;;;3.28;2.00;;;;;;;9.08;67.23;97094.91;10366941;28;20050;-61
2024/02/11 02:39:03;;;;;;;3.70;1.90;;;;;;;9.00;67.46;97113.09;10362528;28;20152;-61
2024/02/11 02:44:05;;;;;;;3.45;1.95;;;;;;;9.01;67.36;97099.09;10371705;28;20045;-61
2024/02/11 02:49:07;;;;;;;3.35;1.92;;;;;;;8.85;67.44;97094.56;10370009;28;20069;-62
2024/02/11 02:54:12;;;;;;;3.13;1.92;;;;;;;8.66;67.71;97099.94;10373648;28;20472;-61
2024/02/11 02:59:17;;;;;;;5.40;1.92;;;;;;;8.68;67.83;97092.78;10374486;28;20049;-61
2024/02/11 03:04:19;;;;;;;6.72;2.95;;;;;;;8.70;67.87;97096.06;10392731;28;20568;-62
2024/02/11 03:09:22;;;;;;;24.70;3.00;;;;;;;8.58;67.98;97102.47;10378388;28;20163;-61
2024/02/11 03:14:24;;;;;;;3.70;2.03;;;;;;;8.67;67.96;97105.94;10370183;28;20527;-61
2024/02/11 03:19:26;;;;;;;6.35;2.20;;;;;;;8.68;67.93;97110.19;10378685;28;20054;-61
2024/02/11 03:24:29;;;;;;;5.10;2.63;;;;;;;8.71;67.82;97117.69;10374680;28;20378;-61
2024/02/11 03:29:32;;;;;;;4.32;2.20;;;;;;;8.85;67.73;97120.63;10368798;28;20079;-61
2024/02/11 03:34:34;;;;;;;3.80;2.35;;;;;;;8.95;67.73;97130.16;10375225;28;20043;-60
2024/02/11 03:39:36;;;;;;;5.90;2.33;;;;;;;8.99;67.48;97137.53;10378404;28;20049;-61
2024/02/11 03:44:38;;;;;;;3.90;1.98;;;;;;;8.94;67.61;97134.53;10376488;28;20057;-61
2024/02/11 03:49:40;;;;;;;4.38;2.47;;;;;;;9.06;67.63;97133.34;10371812;28;20042;-61
2024/02/11 03:54:42;;;;;;;4.28;2.05;;;;;;;9.07;67.34;97131.56;10364010;28;20054;-61
2024/02/11 03:59:45;;;;;;;5.40;2.60;;;;;;;8.97;67.40;97139.47;10378046;28;20041;-61
2024/02/11 04:04:49;;;;;;;4.20;2.20;;;;;;;9.03;67.57;97143.25;10371067;28;20056;-60
2024/02/11 04:09:52;;;;;;;5.18;2.10;;;;;;;9.14;67.37;97156.06;10371557;28;20501;-61
2024/02/11 04:14:54;;;;;;;3.45;1.88;;;;;;;9.10;67.38;97149.50;10377032;28;20037;-61
2024/02/11 04:19:57;;;;;;;3.78;2.00;;;;;;;9.10;67.49;97165.97;10372608;28;20057;-61
2024/02/11 04:25:02;;;;;;;5.78;2.00;;;;;;;9.12;67.37;97166.63;10373446;28;20052;-61
2024/02/11 04:30:07;;;;;;;4.03;2.13;;;;;;;9.17;67.30;97160.97;10372477;28;20054;-61
2024/02/11 04:35:11;;;;;;;4.18;2.10;;;;;;;9.18;67.29;97160.81;10372694;28;20049;-61
2024/02/11 04:40:17;;;;;;;2.72;1.83;;;;;;;9.08;67.27;97162.69;10366600;28;20057;-61
2024/02/11 04:45:22;;;;;;;1.77;1.30;;;;;;;8.89;68.01;97157.66;10371399;28;20041;-61
2024/02/11 04:50:28;;;;;;;1.38;1.10;;;;;;;9.11;67.69;97183.28;10366310;28;20426;-61
2024/02/11 04:55:43;;;;;;;1.80;1.20;;;;;;;9.14;67.32;97196.00;10378470;28;20468;-62
2024/02/11 05:00:50;;;;;;;1.48;0.98;;;;;;;9.10;66.96;97194.66;10363510;28;20050;-61
2024/02/11 05:05:53;;;;;;;1.25;1.00;;;;;;;9.09;67.06;97198.25;10367364;28;20478;-61
2024/02/11 05:10:55;;;;;;;1.00;0.80;;;;;;;9.23;66.63;97202.09;10372582;28;20561;-61
2024/02/11 05:16:01;;;;;;;1.83;1.30;;;;;;;9.10;66.45;97212.06;10376789;28;20114;-62
2024/02/11 05:21:04;;;;;;;0.88;0.60;;;;;;;9.15;66.35;97226.31;10368694;28;20405;-61
2024/02/11 05:26:09;;;;;;;0.70;0.70;;;;;;;9.12;66.15;97234.44;10365486;28;20045;-61
2024/02/11 05:31:18;;;;;;;1.08;0.55;;;;;;;9.07;65.37;97254.94;10371707;28;20524;-61
2024/02/11 05:36:21;;;;;;;1.67;0.60;;;;;;;9.01;65.45;97254.69;10374540;28;20041;-60
2024/02/11 05:41:23;;;;;;;0.40;0.40;;;;;;;8.89;64.63;97261.06;10370612;28;20056;-60
2024/02/11 05:46:25;;;;;;;0.40;0.40;;;;;;;9.01;64.75;97265.94;10371337;28;20049;-61
2024/02/11 05:51:27;;;;;;;0.30;0.30;;;;;;;8.83;64.66;97268.50;10369145;28;20156;-61
2024/02/11 05:56:30;;;;;;;0.70;0.50;;;;;;;8.74;64.46;97271.16;10373772;28;20053;-61
2024/02/11 06:01:32;;;;;;;0.88;0.88;;;;;;;8.49;63.67;97284.81;10374621;28;20053;-61
2024/02/11 06:06:34;;;;;;;1.00;0.90;;;;;;;8.54;63.96;97290.44;10374235;28;20041;-60
2024/02/11 06:11:36;;;;;;;1.42;0.90;;;;;;;8.59;63.73;97285.59;10369513;28;20060;-60
2024/02/11 06:16:38;;;;;;;1.30;1.00;;;;;;;8.40;63.70;97273.50;10360443;28;20464;-60
2024/02/11 06:21:40;;;;;;;1.48;0.85;;;;;;;8.27;63.87;97282.56;10368979;28;20081;-60
2024/02/11 06:26:42;;;;;;;1.30;1.00;;;;;;;8.14;63.66;97292.47;10374459;28;20137;-60
2024/02/11 06:31:44;;;;;;;1.65;1.13;;;;;;;8.26;63.87;97299.16;10372638;28;20124;-61
2024/02/11 06:36:46;;;;;;;1.75;1.23;;;;;;;8.43;63.40;97304.44;10377127;28;20046;-61
2024/02/11 06:41:48;;;;;;;2.70;1.25;;;;;;;8.45;63.51;97314.72;10384268;28;20084;-61
2024/02/11 06:46:50;;;;;;;4.75;1.90;;;;;;;8.29;63.10;97327.50;10381471;28;20089;-62
2024/02/11 06:51:52;;;;;;;2.08;1.30;;;;;;;8.38;63.36;97340.53;10373850;28;20061;-60
2024/02/11 06:56:55;;;;;;;2.88;1.42;;;;;;;8.46;62.97;97342.44;10373864;28;20490;-60
2024/02/11 07:01:57;;;;;;;2.80;1.50;;;;;;;8.49;62.79;97355.97;10377082;28;20149;-60
2024/02/11 07:07:03;;;;;;;2.00;1.42;;;;;;;8.52;62.36;97363.53;10373556;28;20050;-61
2024/02/11 07:12:06;;;;;;;2.35;1.50;;;;;;;8.58;62.74;97375.16;10373431;28;20096;-61
2024/02/11 07:17:09;;;;;;;3.40;1.50;;;;;;;8.58;62.40;97382.97;10379719;28;20057;-61
2024/02/11 07:22:11;;;;;;;2.78;1.65;;;;;;;8.64;62.24;97391.06;10372248;28;20038;-61
2024/02/11 07:27:14;;;;;;;2.75;1.48;;;;;;;8.39;61.73;97399.44;10374260;28;20054;-61
2024/02/11 07:32:17;;;;;;;3.08;1.67;;;;;;;8.55;62.16;97398.88;10370371;28;20049;-61
2024/02/11 07:37:19;;;;;;;3.22;1.58;;;;;;;8.56;61.99;97421.38;10379065;28;20408;-61
2024/02/11 07:42:22;;;;;;;4.13;1.83;;;;;;;8.57;61.87;97429.03;10374592;28;20042;-60
2024/02/11 07:47:30;;;;;;;3.40;1.60;;;;;;;8.81;61.66;97439.81;10376202;28;20054;-61
2024/02/11 07:52:32;;;;;;;2.30;1.50;;;;;;;8.95;61.46;97441.16;10379477;28;20107;-60
2024/02/11 07:57:34;;;;;;;5.80;2.30;;;;;;;9.00;61.06;97453.75;10371993;28;20049;-61
2024/02/11 08:02:36;;;;;;;3.47;1.75;;;;;;;9.03;60.89;97451.72;10372282;28;20046;-62
2024/02/11 08:07:39;;;;;;;4.82;1.90;;;;;;;8.92;60.49;97454.47;10372803;28;20099;-61
2024/02/11 08:12:42;;;;;;;4.63;2.22;;;;;;;8.99;60.55;97458.16;10366660;28;20574;-61
2024/02/11 08:17:43;;;;;;;5.20;1.90;;;;;;;9.08;60.94;97472.94;10364918;28;20129;-61
2024/02/11 08:22:46;;;;;;;6.30;2.08;;;;;;;9.15;60.95;97474.03;10368556;28;20042;-61
2024/02/11 08:27:48;;;;;;;4.82;2.00;;;;;;;9.27;60.55;97475.50;10363336;28;20034;-61
2024/02/11 08:32:50;;;;;;;4.40;2.25;;;;;;;9.32;60.41;97488.13;10361317;28;20072;-60
2024/02/11 08:37:52;;;;;;;7.20;2.13;;;;;;;9.32;60.51;97483.69;10355852;28;20417;-61
2024/02/11 08:42:57;;;;;;;6.20;2.65;;;;;;;9.42;60.55;97492.31;10358663;28;20759;-61
2024/02/11 08:47:59;;;;;;;3.95;1.90;;;;;;;9.59;60.35;97499.38;10356981;28;20053;-57
2024/02/11 08:53:02;;;;;;;4.22;2.08;;;;;;;9.83;59.84;97493.66;10360735;28;20188;-59
2024/02/11 08:58:04;;;;;;;3.97;2.13;;;;;;;9.96;59.44;97499.38;10354653;28;20538;-56
2024/02/11 09:03:06;;;;;;;4.72;2.15;;;;;;;10.20;59.23;97493.56;10361722;28;20057;-57
2024/02/11 09:08:08;;;;;;;6.07;2.45;;;;;;;10.30;58.86;97491.72;10361321;28;20100;-57
2024/02/11 09:13:10;;;;;;;3.50;2.17;;;;;;;10.34;58.82;97498.28;10363745;28;20053;-57
2024/02/11 09:18:15;;;;;;;5.95;2.05;;;;;;;10.48;58.85;97500.41;10352499;28;20104;-57
2024/02/11 09:23:17;;;;;;;4.43;1.85;;;;;;;10.54;58.63;97504.19;10357407;28;20045;-58
2024/02/11 09:28:20;;;;;;;4.00;2.17;;;;;;;10.59;58.24;97510.59;10353372;28;20041;-58
2024/02/11 09:33:22;;;;;;;3.13;1.70;;;;;;;10.78;58.32;97514.84;10347211;28;20220;-56
2024/02/11 09:38:24;;;;;;;6.15;2.85;;;;;;;10.80;57.94;97525.97;10344599;28;20056;-54
2024/02/11 09:43:28;;;;;;;4.70;2.25;;;;;;;10.84;58.02;97528.16;10348377;28;20078;-56
2024/02/11 09:48:32;;;;;;;5.68;2.20;;;;;;;11.00;57.68;97528.25;10359955;28;20457;-58
2024/02/11 09:53:38;;;;;;;4.30;2.33;;;;;;;11.03;57.56;97529.75;10343653;28;20066;-57
2024/02/11 09:58:40;;;;;;;4.57;2.03;;;;;;;11.04;57.55;97528.81;10358044;28;20041;-56
2024/02/11 10:03:42;;;;;;;3.35;1.98;;;;;;;11.18;57.36;97528.25;10363923;28;20049;-57
2024/02/11 10:08:45;;;;;;;4.93;2.22;;;;;;;11.32;57.00;97525.91;10364066;28;20727;-56
2024/02/11 10:13:47;;;;;;;7.18;3.28;;;;;;;11.34;56.50;97523.13;10359164;28;20045;-56
2024/02/11 10:18:50;;;;;;;4.65;2.13;;;;;;;11.64;56.31;97529.69;10368304;28;20480;-58
2024/02/11 10:23:54;;;;;;;5.55;2.75;;;;;;;11.70;56.05;97532.47;10348353;28;20053;-56
2024/02/11 10:29:03;;;;;;;3.47;1.88;;;;;;;11.94;55.83;97531.75;10361786;28;20077;-56
2024/02/11 10:34:08;;;;;;;2.75;1.50;;;;;;;11.99;55.02;97540.78;10357766;28;20057;-57
2024/02/11 10:39:10;;;;;;;3.90;1.70;;;;;;;11.71;55.48;97551.63;10358213;28;20045;-56
2024/02/11 10:44:13;;;;;;;4.43;1.35;;;;;;;11.24;56.04;97545.94;10356740;28;20096;-56
2024/02/11 10:49:15;;;;;;;3.33;1.50;;;;;;;10.88;57.49;97555.63;10366421;28;20132;-57
2024/02/11 10:54:18;;;;;;;3.15;1.45;;;;;;;10.93;57.77;97557.81;10362826;28;20135;-57
2024/02/11 10:59:27;;;;;;;3.28;1.60;;;;;;;10.87;58.13;97558.38;10358919;28;20089;-58
2024/02/11 11:04:32;;;;;;;4.57;1.67;;;;;;;10.95;58.16;97567.13;10357893;28;20053;-57
2024/02/11 11:09:34;;;;;;;3.80;1.77;;;;;;;11.32;57.89;97568.75;10358416;28;20060;-57
2024/02/11 11:14:48;;;;;;;2.38;1.00;;;;;;;11.58;56.99;97557.28;10357900;28;20053;-58
2024/02/11 11:19:52;;;;;;;1.63;1.27;;;;;;;11.93;56.89;97558.91;10360442;28;20049;-55
2024/02/11 11:24:58;;;;;;;1.70;1.00;;;;;;;11.76;56.25;97567.69;10354607;28;20052;-57
2024/02/11 11:30:01;;;;;;;3.55;1.23;;;;;;;11.83;56.45;97559.06;10362372;28;20049;-57
2024/02/11 11:35:06;;;;;;;2.33;1.10;;;;;;;11.64;55.95;97558.47;10364405;28;20068;-57
2024/02/11 11:40:09;;;;;;;2.35;1.17;;;;;;;11.24;55.59;97552.00;10364780;28;20204;-57
2024/02/11 11:45:11;;;;;;;2.50;1.10;;;;;;;11.15;56.35;97547.69;10356385;28;20077;-57
2024/02/11 11:50:14;;;;;;;2.25;0.93;;;;;;;11.23;56.19;97545.13;10368474;28;20068;-58
2024/02/11 11:55:16;;;;;;;1.92;1.10;;;;;;;11.31;55.65;97544.38;10366541;28;20489;-56
2024/02/11 12:00:18;;;;;;;2.42;1.00;;;;;;;11.66;55.09;97541.59;10373007;28;20511;-57
2024/02/11 12:05:20;;;;;;;1.48;1.00;;;;;;;11.67;54.63;97547.69;10374494;28;20132;-58
2024/02/11 12:10:22;;;;;;;3.22;1.20;;;;;;;11.95;53.51;97552.56;10372625;28;20932;-58
2024/02/11 12:15:25;;;;;;;1.73;0.95;;;;;;;12.30;53.21;97551.56;10371058;28;20056;-58
2024/02/11 12:20:27;;;;;;;3.40;1.27;;;;;;;12.57;52.27;97540.00;10372132;28;20057;-58
2024/02/11 12:25:31;;;;;;;11.93;3.67;;;;;;;12.47;52.42;97544.56;10375198;28;20049;-59
2024/02/11 12:30:38;;;;;;;5.25;2.60;;;;;;;12.38;51.59;97550.75;10372133;28;20048;-59
2024/02/11 12:35:40;;;;;;;2.58;1.38;;;;;;;12.10;52.04;97550.16;10376592;28;20115;-58
2024/02/11 12:40:42;;;;;;;1.85;1.02;;;;;;;11.88;51.04;97553.34;10369566;28;20436;-58
2024/02/11 12:45:44;;;;;;;1.25;0.77;;;;;;;11.89;52.01;97561.03;10355210;28;20168;-58
2024/02/11 12:50:47;;;;;;;2.05;1.10;;;;;;;12.06;52.25;97570.63;10356189;28;20045;-56
2024/02/11 12:55:49;;;;;;;4.20;1.00;;;;;;;11.91;51.95;97568.72;10364195;28;20038;-58
2024/02/11 13:00:51;;;;;;;1.70;0.90;;;;;;;11.86;51.94;97574.47;10369040;28;20508;-58
2024/02/11 13:05:54;;;;;;;2.60;1.20;;;;;;;11.84;51.97;97552.84;10367666;28;20053;-59
2024/02/11 13:10:56;;;;;;;3.80;1.83;;;;;;;12.12;50.80;97551.66;10353936;28;20073;-57
2024/02/11 13:16:02;;;;;;;1.45;0.85;;;;;;;12.35;49.20;97553.72;10357569;28;20037;-57
2024/02/11 13:21:04;;;;;;;4.18;1.90;;;;;;;12.28;50.08;97553.53;10355187;28;20053;-58
2024/02/11 13:26:06;;;;;;;3.17;1.35;;;;;;;12.19;51.00;97549.22;10354598;28;20044;-58
2024/02/11 13:31:08;;;;;;;5.72;1.65;;;;;;;11.97;50.36;97560.25;10355319;28;20049;-58
2024/02/11 13:36:28;;;;;;;2.55;1.00;;;;;;;11.83;50.26;97555.59;10366124;28;20042;-57
2024/02/11 13:41:30;;;;;;;2.60;0.88;;;;;;;11.77;49.46;97572.78;10355911;28;20041;-57
2024/02/11 13:46:33;;;;;;;0.85;0.73;;;;;;;11.54;50.31;97569.03;10353401;28;20029;-57
2024/02/11 13:51:35;;;;;;;0.60;0.52;;;;;;;11.39;50.14;97573.22;10361881;28;20482;-56
2024/02/11 13:56:38;;;;;;;0.85;0.52;;;;;;;11.42;50.92;97574.72;10361857;28;20060;-57
2024/02/11 14:01:41;;;;;;;0.63;0.55;;;;;;;11.11;51.18;97580.34;10355770;28;20052;-55
2024/02/11 14:06:46;;;;;;;1.55;0.90;;;;;;;11.49;50.81;97583.56;10356077;28;20111;-56
2024/02/11 14:11:49;;;;;;;2.30;1.10;;;;;;;11.66;50.54;97587.94;10359166;28;20068;-58
2024/02/11 14:16:51;;;;;;;0.70;0.68;;;;;;;12.19;50.86;97579.84;10345401;28;20077;-56
2024/02/11 14:21:53;;;;;;;8.63;2.92;;;;;;;12.05;48.88;97582.06;10355781;28;20052;-59
2024/02/11 14:26:56;;;;;;;11.88;4.53;;;;;;;12.38;50.28;97588.28;10350002;28;20042;-58
2024/02/11 14:32:05;;;;;;;10.52;3.50;;;;;;;12.33;49.03;97593.19;10352594;28;20057;-59
2024/02/11 14:37:08;;;;;;;7.57;1.80;;;;;;;12.32;50.33;97599.41;10353997;28;20042;-58
2024/02/11 14:42:10;;;;;;;1.80;1.00;;;;;;;12.16;49.80;97596.69;10355774;28;20053;-58
2024/02/11 14:47:12;;;;;;;1.02;0.68;;;;;;;12.00;49.84;97597.44;10377738;28;20119;-57
2024/02/11 14:52:15;;;;;;;0.60;0.60;;;;;;;12.06;49.09;97606.47;10361368;28;20101;-56
2024/02/11 14:57:18;;;;;;;1.77;1.00;;;;;;;11.92;49.98;97620.16;10355608;28;20050;-57
2024/02/11 15:02:23;;;;;;;1.38;0.80;;;;;;;11.95;49.48;97614.59;10364240;28;20053;-57
2024/02/11 15:07:26;;;;;;;2.40;0.73;;;;;;;11.89;49.92;97625.69;10362851;28;20111;-57
2024/02/11 15:12:28;;;;;;;1.13;0.40;;;;;;;11.69;48.45;97629.50;10370089;28;20040;-58
2024/02/11 15:17:30;;;;;;;0.85;0.45;;;;;;;11.59;49.78;97639.25;10363992;28;20053;-58
2024/02/11 15:22:33;;;;;;;2.42;0.70;;;;;;;11.62;50.00;97633.72;10374624;28;20057;-58
2024/02/11 15:27:35;;;;;;;1.25;0.60;;;;;;;11.59;50.36;97636.63;10366144;28;20052;-59
2024/02/11 15:32:37;;;;;;;0.60;0.57;;;;;;;11.71;50.12;97640.66;10357220;28;20144;-58
2024/02/11 15:37:39;;;;;;;0.98;0.60;;;;;;;11.66;50.30;97635.06;10366999;28;20059;-58
2024/02/11 15:42:41;;;;;;;0.77;0.75;;;;;;;11.53;50.07;97637.25;10361338;28;20053;-58
2024/02/11 15:47:43;;;;;;;0.38;0.38;;;;;;;11.65;50.34;97649.13;10359072;28;20054;-57
2024/02/11 15:52:45;;;;;;;1.00;0.60;;;;;;;11.46;50.31;97649.31;10361367;28;20046;-58
2024/02/11 15:57:48;;;;;;;1.88;0.60;;;;;;;11.25;50.10;97655.69;10360741;28;20057;-58
2024/02/11 16:02:50;;;;;;;0.80;0.70;;;;;;;11.26;50.45;97659.94;10346795;28;20415;-57
2024/02/11 16:07:52;;;;;;;2.10;0.90;;;;;;;11.25;50.45;97658.28;10358616;28;20053;-57
2024/02/11 16:12:54;;;;;;;1.10;0.77;;;;;;;11.06;51.00;97668.94;10350260;28;20045;-58
2024/02/11 16:18:00;;;;;;;1.00;0.57;;;;;;;11.17;51.12;97676.53;10365328;28;20100;-57
2024/02/11 16:23:05;;;;;;;1.23;0.73;;;;;;;11.23;51.33;97689.03;10363475;28;20126;-56
2024/02/11 16:28:07;;;;;;;0.80;0.68;;;;;;;11.08;51.48;97693.16;10360810;28;20100;-57
2024/02/11 16:33:10;;;;;;;1.55;0.52;;;;;;;10.94;51.76;97692.81;10359543;28;20315;-58
2024/02/11 16:38:12;;;;;;;0.95;0.65;;;;;;;10.90;52.10;97705.34;10354651;28;20049;-58
2024/02/11 16:46:00;;;;;;;5.22;2.78;;;;;;;10.46;52.41;97711.38;10257790;27;20139;-57
2024/02/11 16:51:05;;;;;;;4.95;2.38;;;;;;;10.62;52.51;97726.44;10257417;28;20399;-58
2024/02/11 16:56:13;;;;;;;4.30;1.80;;;;;;;10.53;52.42;97730.72;10259839;28;20135;-57
2024/02/11 17:01:15;;;;;;;1.60;0.90;;;;;;;10.47;52.79;97739.97;10240043;28;20039;-56
2024/02/11 17:06:18;;;;;;;4.50;1.10;;;;;;;10.31;52.92;97741.56;10260125;28;20055;-56
2024/02/11 17:11:20;;;;;;;1.10;0.70;;;;;;;10.35;52.99;97750.75;10259815;28;20055;-57
2024/02/11 17:16:22;;;;;;;0.52;0.50;;;;;;;10.34;52.96;97747.31;10256566;28;20039;-58
2024/02/11 17:21:24;;;;;;;0.70;0.70;;;;;;;10.39;53.09;97752.94;10260762;28;20511;-58
2024/02/11 17:26:27;;;;;;;1.02;0.65;;;;;;;10.47;52.81;97760.88;10261561;28;20050;-57
2024/02/11 17:31:29;;;;;;;1.45;0.95;;;;;;;10.43;52.83;97763.91;10256046;28;20062;-58
2024/02/11 17:36:31;;;;;;;7.53;1.20;;;;;;;10.40;52.93;97774.66;10258765;28;21283;-57
2024/02/11 17:41:36;;;;;;;0.50;0.50;;;;;;;10.42;52.85;97778.78;10261672;28;20204;-57
2024/02/11 17:46:39;;;;;;;0.65;0.50;;;;;;;10.39;52.77;97773.00;10259232;28;20051;-60
2024/02/11 17:51:42;;;;;;;1.13;0.70;;;;;;;10.46;53.02;97792.41;10260135;28;20047;-62
2024/02/11 17:56:45;;;;;;;1.42;1.00;;;;;;;10.42;53.03;97796.22;10231943;28;20114;-62
2024/02/11 18:01:47;;;;;;;1.35;0.85;;;;;;;10.32;53.36;97806.72;10224844;28;20184;-62
2024/02/11 18:06:49;;;;;;;1.92;1.15;;;;;;;10.27;53.63;97808.13;10228972;28;20055;-60
2024/02/11 18:11:52;;;;;;;1.35;0.70;;;;;;;10.20;53.93;97809.63;10229880;28;20087;-62
2024/02/11 18:16:54;;;;;;;0.60;0.60;;;;;;;10.16;53.96;97809.09;10226992;28;20491;-62
2024/02/11 18:21:56;;;;;;;1.42;0.82;;;;;;;10.30;53.93;97818.25;10225527;28;20043;-62
2024/02/11 18:26:59;;;;;;;0.70;0.70;;;;;;;10.18;53.96;97819.38;10225670;28;20047;-62
2024/02/11 18:32:03;;;;;;;1.85;1.10;;;;;;;9.90;54.35;97830.69;10227277;28;21030;-62
2024/02/11 18:37:05;;;;;;;1.60;1.05;;;;;;;9.73;54.86;97837.41;10228427;28;20055;-62
2024/02/11 18:42:07;;;;;;;1.27;0.65;;;;;;;9.76;54.90;97838.94;10225660;28;20142;-62
2024/02/11 18:47:10;;;;;;;7.32;2.50;;;;;;;9.78;54.82;97839.63;10227502;28;20763;-62
2024/02/11 18:52:13;;;;;;;2.40;0.98;;;;;;;9.82;54.97;97849.66;10222282;28;20051;-61
2024/02/11 18:57:15;;;;;;;2.33;1.40;;;;;;;9.92;54.98;97854.88;10225160;28;20066;-61
2024/02/11 19:02:17;;;;;;;1.40;0.80;;;;;;;9.85;55.30;97869.47;10222631;28;20060;-61
2024/02/11 19:07:19;;;;;;;1.30;0.80;;;;;;;9.67;56.09;97873.72;10218018;28;20046;-60
2024/02/11 19:12:23;;;;;;;0.70;0.60;;;;;;;9.71;56.23;97869.88;10223172;28;20480;-61
2024/02/11 19:17:25;;;;;;;0.70;0.70;;;;;;;9.56;56.76;97885.84;10220927;28;20047;-61
2024/02/11 19:22:33;;;;;;;1.15;1.00;;;;;;;9.69;56.67;97882.22;10222565;28;20063;-60
2024/02/11 19:27:35;;;;;;;1.35;0.70;;;;;;;9.60;56.78;97889.88;10220483;28;20121;-61
2024/02/11 19:32:39;;;;;;;0.43;0.43;;;;;;;9.70;57.00;97886.47;10220706;28;20062;-60
2024/02/11 19:38:02;;;;;;;1.58;0.90;;;;;;;9.65;57.14;97885.06;10220575;28;20050;-61
2024/02/11 19:43:04;;;;;;;0.50;0.47;;;;;;;9.71;57.29;97888.94;10221199;28;20470;-61
2024/02/11 19:48:07;;;;;;;1.42;0.50;;;;;;;9.77;57.27;97890.22;10222794;28;20054;-60
2024/02/11 19:53:09;;;;;;;0.55;0.55;;;;;;;9.81;57.33;97886.38;10226241;28;20075;-60
2024/02/11 19:58:32;;;;;;;1.80;1.00;;;;;;;9.87;57.25;97901.47;10224829;28;20055;-60
2024/02/11 20:03:35;;;;;;;1.50;0.85;;;;;;;9.93;57.41;97914.78;10223789;29;20051;-61
2024/02/11 20:08:40;;;;;;;0.75;0.43;;;;;;;9.92;57.19;97910.53;10224743;28;20506;-60
2024/02/11 20:13:43;;;;;;;1.15;0.65;;;;;;;9.85;57.52;97911.22;10224575;28;20043;-62
2024/02/11 20:18:45;;;;;;;0.65;0.65;;;;;;;9.72;57.68;97921.09;10225863;28;20059;-62
2024/02/11 20:23:47;;;;;;;1.70;0.80;;;;;;;9.65;57.70;97918.16;10224058;28;20051;-62
2024/02/11 20:28:49;;;;;;;2.00;0.80;;;;;;;9.51;58.01;97927.19;10225446;28;20058;-61
2024/02/11 20:33:51;;;;;;;1.80;0.90;;;;;;;9.57;58.15;97923.22;10227682;28;20075;-62
2024/02/11 20:38:53;;;;;;;1.52;0.75;;;;;;;9.54;57.99;97926.91;10217942;28;20047;-61
2024/02/11 20:43:56;;;;;;;1.20;0.82;;;;;;;9.57;58.14;97934.50;10218835;28;20055;-61
2024/02/11 20:48:58;;;;;;;1.60;1.10;;;;;;;9.61;58.00;97940.25;10218957;28;20415;-62
2024/02/11 20:54:01;;;;;;;1.50;0.77;;;;;;;9.53;58.13;97940.09;10221174;28;20465;-62
2024/02/11 20:59:07;;;;;;;2.05;0.95;;;;;;;9.49;58.26;97939.56;10219896;28;20130;-62
2024/02/11 21:04:09;;;;;;;2.80;1.02;;;;;;;9.55;58.23;97941.63;10219515;28;20577;-61
2024/02/11 21:09:11;;;;;;;1.48;1.00;;;;;;;9.60;58.22;97944.69;10220166;28;20044;-61
2024/02/11 21:14:14;;;;;;;1.90;1.10;;;;;;;9.53;58.19;97948.78;10217604;28;20059;-61
2024/02/11 21:19:17;;;;;;;1.17;1.02;;;;;;;9.55;58.38;97957.28;10218818;28;20058;-62
2024/02/11 21:24:21;;;;;;;1.77;1.08;;;;;;;9.58;58.37;97954.41;10212017;28;20059;-62
2024/02/11 21:29:30;;;;;;;0.80;0.75;;;;;;;9.49;58.54;97970.88;10227829;28;20059;-62
2024/02/11 21:34:35;;;;;;;0.65;0.60;;;;;;;9.37;59.13;97964.09;10229468;28;20158;-62
2024/02/11 21:39:40;;;;;;;1.38;0.77;;;;;;;9.40;59.68;97965.63;10238099;28;20066;-61
2024/02/11 21:44:43;;;;;;;1.05;0.98;;;;;;;9.41;59.61;97965.50;10231919;28;20055;-62
2024/02/11 21:49:46;;;;;;;1.40;0.73;;;;;;;9.56;59.47;97969.38;10230581;28;20470;-62
2024/02/11 21:54:48;;;;;;;1.45;0.90;;;;;;;9.59;59.48;97966.50;10229740;28;20040;-62
2024/02/11 21:59:50;;;;;;;1.63;0.52;;;;;;;9.65;59.63;97967.75;10225055;28;20553;-62
2024/02/11 22:04:53;;;;;;;0.57;0.57;;;;;;;9.75;59.59;97970.44;10227600;28;20079;-62
2024/02/11 22:09:55;;;;;;;1.08;0.80;;;;;;;9.81;59.41;97970.69;10229718;28;20065;-62
2024/02/11 22:14:57;;;;;;;1.95;0.75;;;;;;;9.84;59.27;97980.91;10227298;28;20579;-62
2024/02/11 22:20:01;;;;;;;3.50;0.70;;;;;;;9.86;59.36;97978.97;10226800;28;21318;-62
2024/02/11 22:25:04;;;;;;;1.05;0.73;;;;;;;9.88;59.31;97978.81;10229002;28;20046;-62
2024/02/11 22:30:14;;;;;;;1.83;0.80;;;;;;;9.72;59.51;97978.53;10227798;28;20047;-62
2024/02/11 22:35:16;;;;;;;0.77;0.70;;;;;;;9.54;59.71;97988.75;10228439;28;20055;-62
2024/02/11 22:40:19;;;;;;;1.65;1.05;;;;;;;9.48;59.91;97989.28;10221210;28;20047;-62
2024/02/11 22:45:23;;;;;;;1.50;0.88;;;;;;;9.37;59.84;97997.19;10245953;28;20055;-62
2024/02/11 22:50:28;;;;;;;2.05;1.35;;;;;;;9.13;60.43;97994.03;10224625;28;20117;-62
2024/02/11 22:55:30;;;;;;;2.85;1.38;;;;;;;9.09;60.61;97998.69;10228252;28;20059;-62
2024/02/11 23:05:38;;;;;;;2.72;1.23;;;;;;;9.17;60.72;97996.28;10236956;28;20058;-62
2024/02/11 23:10:43;;;;;;;1.60;1.00;;;;;;;9.33;60.75;98001.84;10212099;28;20134;-62
2024/02/11 23:15:47;;;;;;;1.70;1.00;;;;;;;9.30;60.93;98015.13;10219781;28;20467;-62
2024/02/11 23:21:09;;;;;;;1.83;0.90;;;;;;;9.24;61.17;98015.66;10216547;28;20114;-62
2024/02/11 23:26:12;;;;;;;1.88;0.93;;;;;;;9.30;61.21;98022.94;10226973;28;20062;-62
2024/02/11 23:31:15;;;;;;;2.17;0.70;;;;;;;9.34;61.07;98029.56;10213351;28;20047;-62
2024/02/11 23:36:17;;;;;;;1.73;1.02;;;;;;;9.37;61.18;98026.72;10211852;28;20045;-62
2024/02/11 23:41:20;;;;;;;1.27;0.82;;;;;;;9.39;61.09;98029.19;10205869;28;20059;-62
2024/02/11 23:46:23;;;;;;;1.08;0.80;;;;;;;9.39;61.17;98032.63;10219671;28;20070;-63